createdAt,value
2019-03-22T00:00:21.309Z,4.30
2019-03-22T00:02:50.025Z,5.33
2019-03-22T00:05:18.760Z,5.23
2019-03-22T00:07:48.636Z,4.73
2019-03-22T00:10:17.615Z,4.80
2019-03-22T00:12:46.398Z,4.73
2019-03-22T00:15:15.378Z,4.80
2019-03-22T00:17:44.197Z,4.20
2019-03-22T00:20:13.111Z,4.53
2019-03-22T00:22:41.855Z,5.07
2019-03-22T00:25:10.731Z,4.63
2019-03-22T00:27:39.544Z,4.30
2019-03-22T00:30:09.325Z,4.20
2019-03-22T00:32:37.897Z,4.20
2019-03-22T00:35:07.709Z,5.03
2019-03-22T00:37:36.523Z,4.70
2019-03-22T00:40:10.317Z,4.83
2019-03-22T00:42:38.839Z,5.10
2019-03-22T00:45:09.280Z,5.03
2019-03-22T00:47:38.068Z,4.07
2019-03-22T00:50:07.967Z,5.00
2019-03-22T00:52:36.872Z,4.50
2019-03-22T00:55:06.745Z,4.83
2019-03-22T00:57:35.500Z,5.87
2019-03-22T01:00:07.428Z,5.90
2019-03-22T01:02:36.216Z,5.67
2019-03-22T01:05:08.090Z,4.67
2019-03-22T01:07:36.848Z,4.70
2019-03-22T01:10:10.618Z,5.73
2019-03-22T01:12:39.504Z,5.10
2019-03-22T01:15:10.019Z,5.53
2019-03-22T01:17:38.910Z,7.20
2019-03-22T01:20:09.377Z,5.50
2019-03-22T01:22:38.167Z,5.97
2019-03-22T01:25:07.844Z,5.80
2019-03-22T01:27:40.927Z,8.13
2019-03-22T01:30:13.242Z,6.17
2019-03-22T01:32:42.042Z,6.17
2019-03-22T01:35:11.457Z,5.70
2019-03-22T01:37:40.231Z,5.47
2019-03-22T01:40:11.399Z,5.50
2019-03-22T01:42:40.206Z,6.20
2019-03-22T01:45:11.815Z,5.27
2019-03-22T01:47:40.629Z,5.70
2019-03-22T01:50:15.444Z,5.50
2019-03-22T01:52:43.952Z,5.60
2019-03-22T01:55:12.824Z,5.30
2019-03-22T01:57:52.496Z,5.23
2019-03-22T02:00:17.763Z,5.23
2019-03-22T02:02:46.619Z,5.30
2019-03-22T02:05:15.490Z,5.40
2019-03-22T02:07:44.734Z,5.33
2019-03-22T02:10:13.872Z,5.37
2019-03-22T02:12:42.744Z,5.60
2019-03-22T02:15:16.267Z,5.07
2019-03-22T02:17:45.287Z,5.40
2019-03-22T02:20:15.777Z,6.07
2019-03-22T02:22:45.025Z,5.63
2019-03-22T02:25:15.158Z,5.37
2019-03-22T02:27:44.189Z,6.47
2019-03-22T02:30:15.420Z,5.93
2019-03-22T02:32:44.197Z,5.23
2019-03-22T02:35:27.573Z,5.00
2019-03-22T02:37:43.532Z,4.53
2019-03-22T02:40:13.197Z,5.80
2019-03-22T02:42:41.998Z,5.40
2019-03-22T02:45:15.491Z,5.20
2019-03-22T02:47:44.456Z,4.53
2019-03-22T02:50:18.494Z,5.10
2019-03-22T02:52:44.956Z,5.90
2019-03-22T02:55:14.456Z,5.20
2019-03-22T02:57:43.234Z,5.83
2019-03-22T03:00:16.579Z,5.33
2019-03-22T03:02:45.598Z,4.70
2019-03-22T03:05:14.957Z,5.50
2019-03-22T03:07:43.905Z,5.10
2019-03-22T03:10:15.930Z,4.97
2019-03-22T03:12:45.331Z,4.83
2019-03-22T03:15:18.657Z,5.17
2019-03-22T03:17:47.435Z,5.33
2019-03-22T03:20:17.730Z,5.67
2019-03-22T03:22:46.748Z,5.83
2019-03-22T03:25:17.275Z,6.63
2019-03-22T03:27:46.102Z,5.53
2019-03-22T03:30:19.927Z,5.87
2019-03-22T03:32:48.969Z,5.30
2019-03-22T03:35:18.398Z,5.00
2019-03-22T03:37:47.504Z,12.27
2019-03-22T03:40:18.142Z,9.37
2019-03-22T03:42:46.994Z,9.13
2019-03-22T03:45:38.402Z,8.63
2019-03-22T03:48:10.922Z,6.23
2019-03-22T03:50:39.609Z,14.97
2019-03-22T03:53:08.241Z,15.43
2019-03-22T03:55:37.238Z,9.13
2019-03-22T03:58:06.583Z,6.70
2019-03-22T04:00:35.395Z,6.40
2019-03-22T04:03:04.485Z,6.27
2019-03-22T04:05:33.390Z,6.07
2019-03-22T04:08:02.289Z,5.97
2019-03-22T04:10:31.186Z,4.97
2019-03-22T04:13:02.438Z,5.83
2019-03-22T04:15:33.323Z,5.20
2019-03-22T04:18:03.008Z,4.70
2019-03-22T04:20:35.243Z,5.37
2019-03-22T04:23:06.224Z,5.97
2019-03-22T04:25:35.195Z,5.23
2019-03-22T04:28:04.093Z,5.40
2019-03-22T04:30:32.638Z,5.13
2019-03-22T04:33:06.530Z,5.00
2019-03-22T04:35:36.716Z,4.97
2019-03-22T04:38:05.684Z,6.63
2019-03-22T04:40:47.447Z,4.77
2019-03-22T04:43:54.063Z,4.33
2019-03-22T04:45:49.398Z,4.87
2019-03-22T04:48:20.987Z,5.23
2019-03-22T04:50:51.184Z,4.67
2019-03-22T04:53:23.432Z,5.63
2019-03-22T04:55:55.237Z,4.60
2019-03-22T04:58:25.627Z,5.37
2019-03-22T05:00:55.315Z,4.50
2019-03-22T05:03:26.505Z,5.00
2019-03-22T05:05:56.951Z,5.13
2019-03-22T05:08:28.667Z,5.00
2019-03-22T05:10:59.936Z,4.80
2019-03-22T05:13:29.790Z,6.30
2019-03-22T05:15:58.884Z,4.53
2019-03-22T05:18:29.570Z,5.37
2019-03-22T05:20:59.125Z,5.53
2019-03-22T05:23:29.665Z,4.70
2019-03-22T05:26:04.087Z,5.90
2019-03-22T05:28:34.081Z,5.27
2019-03-22T05:31:11.844Z,5.93
2019-03-22T05:33:40.624Z,5.70
2019-03-22T05:36:09.447Z,5.50
2019-03-22T05:38:38.152Z,5.93
2019-03-22T05:41:07.116Z,5.83
2019-03-22T05:43:35.798Z,5.83
2019-03-22T05:46:04.679Z,5.87
2019-03-22T05:48:33.543Z,6.60
2019-03-22T05:51:02.519Z,6.47
2019-03-22T05:53:31.399Z,6.60
2019-03-22T05:56:00.301Z,5.63
2019-03-22T05:58:29.267Z,5.40
2019-03-22T06:00:58.053Z,5.03
2019-03-22T06:03:27.028Z,6.60
2019-03-22T06:06:00.861Z,5.80
2019-03-22T06:08:29.642Z,5.40
2019-03-22T06:14:19.103Z,5.80
2019-03-22T06:16:48.066Z,5.00
2019-03-22T06:19:16.521Z,5.20
2019-03-22T06:21:45.468Z,5.00
2019-03-22T06:24:14.080Z,5.20
2019-03-22T06:26:43.011Z,5.60
2019-03-22T06:29:11.610Z,4.50
2019-03-22T06:31:40.391Z,5.23
2019-03-22T06:34:09.297Z,5.03
2019-03-22T06:36:38.084Z,5.20
2019-03-22T06:39:08.224Z,4.03
2019-03-22T06:41:37.345Z,4.47
2019-03-22T06:44:06.493Z,4.47
2019-03-22T06:46:35.286Z,5.90
2019-03-22T06:49:04.128Z,4.73
2019-03-22T06:51:32.945Z,4.57
2019-03-22T06:54:01.413Z,4.30
2019-03-22T06:56:30.202Z,4.53
2019-03-22T06:58:58.778Z,5.13
2019-03-22T07:01:27.659Z,5.93
2019-03-22T07:03:56.213Z,6.30
2019-03-22T07:06:25.044Z,6.30
2019-03-22T07:08:53.865Z,6.83
2019-03-22T07:11:22.669Z,5.73
2019-03-22T07:13:51.573Z,4.93
2019-03-22T07:16:20.329Z,5.40
2019-03-22T07:18:49.146Z,5.03
2019-03-22T07:21:17.985Z,5.40
2019-03-22T07:23:46.852Z,4.97
2019-03-22T07:26:15.670Z,5.70
2019-03-22T07:28:44.517Z,4.97
2019-03-22T07:31:13.464Z,5.47
2019-03-22T07:33:42.237Z,5.13
2019-03-22T07:36:11.053Z,5.60
2019-03-22T07:38:39.946Z,5.47
2019-03-22T07:41:08.468Z,5.33
2019-03-22T07:43:37.331Z,7.33
2019-03-22T07:46:06.248Z,5.87
2019-03-22T07:48:35.107Z,5.83
2019-03-22T07:51:03.964Z,6.07
2019-03-22T07:53:32.550Z,5.77
2019-03-22T07:56:01.323Z,5.60
2019-03-22T07:58:30.189Z,4.97
2019-03-22T08:00:58.721Z,6.03
2019-03-22T08:03:27.205Z,5.80
2019-03-22T08:05:56.009Z,5.60
2019-03-22T08:08:24.942Z,6.10
2019-03-22T08:10:53.777Z,6.63
2019-03-22T08:13:22.659Z,5.83
2019-03-22T08:15:51.448Z,6.03
2019-03-22T08:18:20.295Z,5.70
2019-03-22T08:20:49.396Z,6.37
2019-03-22T08:23:20.368Z,5.70
2019-03-22T08:25:49.481Z,5.70
2019-03-22T08:28:18.094Z,6.10
2019-03-22T08:30:46.635Z,6.47
2019-03-22T08:33:15.436Z,6.27
2019-03-22T08:35:44.337Z,5.90
2019-03-22T08:38:13.135Z,6.70
2019-03-22T08:40:41.614Z,5.80
2019-03-22T08:43:10.503Z,6.40
2019-03-22T08:45:39.291Z,5.30
2019-03-22T08:48:09.065Z,6.13
2019-03-22T08:50:37.591Z,5.90
2019-03-22T08:53:06.418Z,6.10
2019-03-22T08:55:35.259Z,6.07
2019-03-22T08:58:04.157Z,6.60
2019-03-22T09:00:39.329Z,6.20
2019-03-22T09:03:03.386Z,6.70
2019-03-22T09:05:32.292Z,6.47
2019-03-22T09:08:01.170Z,6.27
2019-03-22T09:10:30.167Z,7.23
2019-03-22T09:12:59.141Z,6.17
2019-03-22T09:15:40.237Z,6.03
2019-03-22T09:17:58.305Z,6.07
2019-03-22T09:20:27.238Z,5.77
2019-03-22T09:22:56.077Z,5.87
2019-03-22T09:25:24.991Z,6.30
2019-03-22T09:27:53.795Z,6.33
2019-03-22T09:30:22.636Z,6.20
2019-03-22T09:32:51.646Z,6.50
2019-03-22T09:35:20.418Z,6.10
2019-03-22T09:37:49.306Z,7.20
2019-03-22T09:40:18.258Z,6.40
2019-03-22T09:42:47.980Z,6.00
2019-03-22T09:45:17.203Z,6.20
2019-03-22T09:47:46.080Z,6.77
2019-03-22T09:50:15.393Z,5.57
2019-03-22T09:52:44.229Z,6.43
2019-03-22T09:55:14.266Z,6.17
2019-03-22T09:57:43.376Z,6.67
2019-03-22T10:00:27.510Z,5.77
2019-03-22T10:02:56.021Z,5.90
2019-03-22T10:05:24.915Z,5.17
2019-03-22T10:07:53.509Z,6.13
2019-03-22T10:10:22.376Z,5.40
2019-03-22T10:12:50.969Z,5.97
2019-03-22T10:15:19.691Z,6.00
2019-03-22T10:17:49.530Z,5.30
2019-03-22T10:20:18.394Z,5.13
2019-03-22T10:22:46.990Z,5.27
2019-03-22T10:25:15.782Z,5.20
2019-03-22T10:27:44.264Z,5.70
2019-03-22T10:30:15.095Z,6.63
2019-03-22T10:32:43.956Z,5.63
2019-03-22T10:35:25.497Z,5.80
2019-03-22T10:37:42.953Z,6.60
2019-03-22T10:40:11.841Z,5.53
2019-03-22T10:42:40.628Z,6.43
2019-03-22T10:45:10.095Z,5.97
2019-03-22T10:47:38.888Z,5.10
2019-03-22T10:50:08.765Z,5.50
2019-03-22T10:52:38.628Z,5.73
2019-03-22T10:55:28.554Z,5.93
2019-03-22T10:57:40.847Z,5.73
2019-03-22T11:00:12.622Z,6.20
2019-03-22T11:02:41.389Z,5.73
2019-03-22T11:05:10.487Z,6.20
2019-03-22T11:07:39.278Z,6.23
2019-03-22T11:10:11.192Z,6.13
2019-03-22T11:12:40.544Z,6.67
2019-03-22T11:15:11.730Z,6.27
2019-03-22T11:17:40.475Z,6.33
2019-03-22T11:20:15.010Z,6.40
2019-03-22T11:22:59.621Z,7.83
2019-03-22T11:25:28.543Z,7.43
2019-03-22T11:27:56.973Z,7.13
2019-03-22T11:30:25.779Z,7.17
2019-03-22T11:32:54.483Z,7.27
2019-03-22T11:35:23.151Z,7.07
2019-03-22T11:37:51.871Z,6.90
2019-03-22T11:40:20.739Z,6.70
2019-03-22T11:42:51.433Z,6.90
2019-03-22T11:45:24.632Z,7.83
2019-03-22T11:47:53.674Z,7.07
2019-03-22T11:50:23.191Z,7.83
2019-03-22T11:52:51.915Z,6.33
2019-03-22T11:55:20.758Z,7.97
2019-03-22T11:57:49.206Z,6.33
2019-03-22T12:00:25.371Z,7.80
2019-03-22T12:02:54.135Z,6.80
2019-03-22T12:05:23.273Z,8.10
2019-03-22T12:07:52.065Z,6.53
2019-03-22T12:10:21.425Z,6.97
2019-03-22T12:12:50.273Z,6.40
2019-03-22T12:15:23.438Z,7.40
2019-03-22T12:17:52.128Z,7.20
2019-03-22T12:20:22.767Z,7.67
2019-03-22T12:22:51.766Z,7.10
2019-03-22T12:25:22.698Z,7.20
2019-03-22T12:27:52.010Z,6.53
2019-03-22T12:30:20.804Z,6.72
2019-03-22T12:32:49.571Z,6.50
2019-03-22T12:35:19.409Z,6.87
2019-03-22T12:37:48.191Z,6.63
2019-03-22T12:40:21.534Z,6.45
2019-03-22T12:43:11.327Z,7.20
2019-03-22T13:01:21.331Z,7.55
2019-03-22T13:03:50.306Z,6.20
2019-03-22T13:06:18.731Z,7.05
2019-03-22T13:08:47.179Z,6.58
2019-03-22T13:11:15.960Z,5.47
2019-03-22T13:13:44.746Z,5.95
2019-03-22T13:17:11.595Z,6.67
2019-03-22T13:20:10.686Z,6.15
2019-03-22T14:41:45.662Z,2.97
2019-03-22T14:44:14.451Z,3.13
2019-03-22T14:46:43.215Z,3.27
2019-03-22T14:49:12.022Z,2.93
2019-03-22T14:51:40.859Z,2.73
2019-03-22T14:54:09.667Z,3.03
2019-03-22T14:56:38.476Z,3.73
2019-03-22T14:59:06.941Z,3.47
2019-03-22T15:07:26.968Z,3.90
2019-03-22T15:10:05.042Z,3.67
2019-03-22T15:12:33.799Z,4.00
2019-03-22T15:15:07.752Z,3.07
2019-03-22T15:20:21.944Z,3.57
2019-03-22T15:25:05.334Z,3.30
2019-03-22T15:29:28.023Z,2.37
2019-03-22T16:04:03.792Z,4.63
2019-03-22T16:06:32.494Z,4.73
2019-03-22T16:09:01.187Z,4.80
2019-03-22T16:11:29.897Z,4.93
2019-03-22T16:13:58.321Z,4.60
2019-03-22T16:16:27.024Z,4.27
2019-03-22T16:18:55.455Z,5.63
2019-03-22T16:22:01.059Z,6.10
2019-03-22T16:24:01.749Z,6.63
2019-03-22T16:26:30.878Z,7.20
2019-03-22T16:28:59.371Z,7.43
2019-03-22T16:31:28.902Z,6.93
2019-03-22T16:33:57.766Z,6.60
2019-03-22T16:36:26.483Z,6.80
2019-03-22T16:38:54.952Z,6.80
2019-03-22T16:41:23.373Z,5.60
2019-03-22T16:43:51.794Z,6.13
2019-03-22T16:46:20.533Z,6.20
2019-03-22T16:48:48.955Z,6.83
2019-03-22T16:51:18.398Z,5.93
2019-03-22T16:53:47.111Z,6.90
2019-03-22T16:56:15.803Z,6.33
2019-03-22T16:58:44.221Z,5.90
2019-03-22T17:01:12.928Z,7.10
2019-03-22T17:03:44.391Z,7.77
2019-03-22T17:06:15.811Z,7.00
2019-03-22T17:08:44.628Z,7.20
2019-03-22T17:11:13.313Z,6.80
2019-03-22T17:13:42.103Z,7.10
2019-03-22T17:16:11.817Z,6.27
2019-03-22T17:18:40.844Z,6.63
2019-03-22T17:22:48.645Z,6.97
2019-03-22T17:24:07.963Z,6.07
2019-03-22T17:26:39.905Z,7.87
2019-03-22T17:29:09.005Z,5.87
2019-03-22T17:31:46.835Z,6.67
2019-03-22T17:34:14.469Z,6.80
2019-03-22T17:36:42.043Z,7.57
2019-03-22T17:39:14.711Z,6.57
2019-03-22T17:41:43.528Z,7.33
2019-03-22T17:44:12.495Z,6.83
2019-03-22T17:46:52.219Z,6.63
2019-03-22T17:49:23.413Z,6.33
2019-03-22T17:51:52.240Z,6.10
2019-03-22T17:54:20.800Z,5.73
2019-03-22T17:56:49.715Z,6.30
2019-03-22T17:59:18.603Z,6.13
2019-03-22T18:01:47.467Z,6.80
2019-03-22T18:04:23.877Z,5.83
2019-03-22T18:06:46.640Z,5.27
2019-03-22T18:09:15.561Z,5.20
2019-03-22T18:11:44.473Z,5.90
2019-03-22T18:14:16.232Z,5.80
2019-03-22T18:16:44.733Z,6.50
2019-03-22T18:19:13.731Z,5.60
2019-03-22T18:21:42.553Z,6.53
2019-03-22T18:24:11.353Z,6.33
2019-03-22T18:26:39.966Z,6.43
2019-03-22T18:29:08.861Z,6.23
2019-03-22T18:31:37.754Z,5.90
2019-03-22T18:34:06.530Z,5.43
2019-03-22T18:36:35.435Z,5.30
2019-03-22T18:39:07.531Z,4.83
2019-03-22T18:41:36.422Z,4.90
2019-03-22T18:44:05.078Z,5.07
2019-03-22T18:46:33.579Z,5.53
2019-03-22T18:49:02.431Z,6.90
2019-03-22T18:51:31.319Z,6.50
2019-03-22T18:53:59.969Z,4.80
2019-03-22T18:56:28.863Z,5.13
2019-03-22T18:58:57.737Z,4.90
2019-03-22T19:01:26.212Z,6.80
2019-03-22T19:03:55.208Z,6.43
2019-03-22T19:06:24.111Z,9.97
2019-03-22T19:08:53.009Z,8.60
2019-03-22T19:11:21.591Z,8.10
2019-03-22T19:13:50.449Z,8.23
2019-03-22T19:16:19.358Z,8.97
2019-03-22T19:18:48.284Z,8.90
2019-03-22T19:21:17.179Z,7.80
2019-03-22T19:23:46.027Z,6.63
2019-03-22T19:26:14.904Z,6.87
2019-03-22T19:28:43.375Z,5.73
2019-03-22T19:31:12.242Z,6.60
2019-03-22T19:33:41.070Z,5.10
2019-03-22T19:36:09.713Z,6.37
2019-03-22T19:38:38.535Z,5.90
2019-03-22T19:41:07.460Z,7.50
2019-03-22T19:43:36.311Z,8.33
2019-03-22T19:46:05.621Z,6.80
2019-03-22T19:48:34.490Z,7.87
2019-03-22T19:51:03.370Z,7.30
2019-03-22T19:53:31.978Z,8.13
2019-03-22T19:56:00.575Z,10.43
2019-03-22T19:58:29.087Z,8.37
2019-03-22T20:00:57.665Z,6.57
2019-03-22T20:03:26.529Z,15.47
2019-03-22T20:05:55.426Z,12.40
2019-03-22T20:08:23.999Z,7.60
2019-03-22T20:10:52.876Z,7.87
2019-03-22T20:13:22.231Z,7.80
2019-03-22T20:15:51.251Z,6.47
2019-03-22T20:18:20.100Z,7.07
2019-03-22T20:20:49.006Z,8.43
2019-03-22T20:23:17.842Z,8.13
2019-03-22T20:25:46.787Z,7.37
2019-03-22T20:28:23.291Z,7.93
2019-03-22T20:30:52.254Z,7.27
2019-03-22T20:33:25.712Z,7.67
2019-03-22T20:35:54.345Z,7.17
2019-03-22T20:41:43.469Z,6.27
2019-03-22T20:44:12.650Z,6.13
2019-03-22T20:46:49.034Z,7.00
2019-03-22T20:49:18.146Z,6.97
2019-03-22T20:51:46.839Z,6.87
2019-03-22T20:54:17.522Z,6.90
2019-03-22T20:56:46.713Z,6.23
2019-03-22T21:13:34.575Z,6.80
2019-03-22T21:16:03.469Z,7.03
2019-03-22T21:18:32.354Z,6.67
2019-03-22T21:21:01.271Z,7.00
2019-03-22T21:23:36.253Z,7.33
2019-03-22T21:26:00.368Z,9.53
2019-03-22T21:28:29.278Z,17.10
2019-03-22T21:30:58.141Z,14.10
2019-03-22T21:33:26.990Z,10.57
2019-03-22T21:35:55.976Z,6.83
2019-03-22T21:38:24.839Z,7.00
2019-03-22T21:40:53.421Z,7.97
2019-03-22T21:43:22.242Z,8.90
2019-03-22T21:45:51.034Z,7.30
2019-03-22T21:48:19.877Z,8.33
2019-03-22T21:50:48.858Z,7.83
2019-03-22T21:53:17.732Z,8.97
2019-03-22T21:55:46.603Z,6.73
2019-03-22T21:58:15.493Z,6.70
2019-03-22T22:00:44.365Z,6.60
2019-03-22T22:03:13.037Z,6.87
2019-03-22T22:05:47.804Z,6.77
2019-03-22T22:08:12.448Z,7.93
2019-03-22T22:10:41.305Z,6.80
2019-03-22T22:13:10.125Z,7.60
2019-03-22T22:15:38.928Z,6.80
2019-03-22T22:18:07.723Z,6.33
2019-03-22T22:20:36.657Z,6.83
2019-03-22T22:23:05.466Z,7.37
2019-03-22T22:25:34.345Z,6.50
2019-03-22T22:28:03.223Z,7.60
2019-03-22T22:30:31.748Z,6.97
2019-03-22T22:33:00.539Z,7.03
2019-03-22T22:35:29.428Z,7.20
2019-03-22T22:37:58.215Z,6.43
2019-03-22T22:40:27.078Z,7.13
2019-03-22T22:42:55.928Z,7.40
2019-03-22T22:45:24.889Z,6.67
2019-03-22T22:47:53.737Z,7.13
2019-03-22T22:50:22.658Z,7.10
2019-03-22T22:52:51.139Z,7.57
2019-03-22T22:55:19.978Z,7.13
2019-03-22T22:57:48.832Z,7.43
2019-03-22T23:00:18.332Z,7.17
2019-03-22T23:02:47.222Z,8.57
2019-03-22T23:05:16.203Z,8.30
2019-03-22T23:07:45.021Z,8.53
2019-03-22T23:10:14.006Z,8.47
2019-03-22T23:12:43.806Z,8.07
2019-03-22T23:15:12.531Z,7.83
2019-03-22T23:17:41.433Z,8.47
2019-03-22T23:20:11.259Z,8.27
2019-03-22T23:22:39.760Z,8.47
2019-03-22T23:25:09.212Z,8.30
2019-03-22T23:27:38.284Z,9.30
2019-03-22T23:30:12.103Z,8.50
2019-03-22T23:32:41.260Z,9.10
2019-03-22T23:35:10.387Z,9.17
2019-03-22T23:37:38.939Z,8.90
2019-03-22T23:40:08.767Z,10.80
2019-03-22T23:42:37.637Z,9.40
2019-03-22T23:45:09.136Z,8.67
2019-03-22T23:47:38.039Z,8.60
2019-03-22T23:50:10.162Z,8.00
2019-03-22T23:52:39.013Z,10.30
2019-03-22T23:55:08.632Z,8.07
2019-03-22T23:57:37.452Z,8.33
